sensor_id;sensor_type;location;lat;lon;timestamp;temperature;humidity
51733;DHT22;39139;53.144;6.244;2023-02-28T00:00:04;3.90;99.90
51733;DHT22;39139;53.144;6.244;2023-02-28T00:02:37;3.80;99.90
51733;DHT22;39139;53.144;6.244;2023-02-28T00:05:04;3.70;99.90
51733;DHT22;39139;53.144;6.244;2023-02-28T00:07:30;3.70;99.90
51733;DHT22;39139;53.144;6.244;2023-02-28T00:09:56;3.70;99.90
51733;DHT22;39139;53.144;6.244;2023-02-28T00:12:22;3.80;99.90
51733;DHT22;39139;53.144;6.244;2023-02-28T00:14:48;3.80;99.90
51733;DHT22;39139;53.144;6.244;2023-02-28T00:17:14;3.80;99.90
51733;DHT22;39139;53.144;6.244;2023-02-28T00:19:39;3.80;99.90
51733;DHT22;39139;53.144;6.244;2023-02-28T00:22:05;3.80;99.90
51733;DHT22;39139;53.144;6.244;2023-02-28T00:24:31;3.80;99.90
51733;DHT22;39139;53.144;6.244;2023-02-28T00:26:56;3.80;99.90
51733;DHT22;39139;53.144;6.244;2023-02-28T00:29:22;4.10;99.90
51733;DHT22;39139;53.144;6.244;2023-02-28T00:31:47;3.80;99.90
51733;DHT22;39139;53.144;6.244;2023-02-28T00:34:13;3.70;99.90
51733;DHT22;39139;53.144;6.244;2023-02-28T00:36:38;3.70;99.90
51733;DHT22;39139;53.144;6.244;2023-02-28T00:39:06;3.80;99.90
51733;DHT22;39139;53.144;6.244;2023-02-28T00:41:31;3.80;99.90
51733;DHT22;39139;53.144;6.244;2023-02-28T00:43:57;3.70;99.90
51733;DHT22;39139;53.144;6.244;2023-02-28T00:46:22;3.70;99.90
51733;DHT22;39139;53.144;6.244;2023-02-28T00:48:48;3.80;99.90
51733;DHT22;39139;53.144;6.244;2023-02-28T00:51:14;3.70;99.90
51733;DHT22;39139;53.144;6.244;2023-02-28T00:53:39;3.70;99.90
51733;DHT22;39139;53.144;6.244;2023-02-28T00:56:05;3.70;99.90
51733;DHT22;39139;53.144;6.244;2023-02-28T00:58:31;3.80;99.90
51733;DHT22;39139;53.144;6.244;2023-02-28T01:00:56;3.70;99.90
51733;DHT22;39139;53.144;6.244;2023-02-28T01:03:22;3.70;99.90
51733;DHT22;39139;53.144;6.244;2023-02-28T01:05:48;3.70;99.90
51733;DHT22;39139;53.144;6.244;2023-02-28T01:08:14;3.80;99.90
51733;DHT22;39139;53.144;6.244;2023-02-28T01:10:40;3.80;99.90
51733;DHT22;39139;53.144;6.244;2023-02-28T01:13:06;3.80;99.90
51733;DHT22;39139;53.144;6.244;2023-02-28T01:15:31;3.80;99.90
51733;DHT22;39139;53.144;6.244;2023-02-28T01:17:58;3.80;99.90
51733;DHT22;39139;53.144;6.244;2023-02-28T01:20:23;3.80;99.90
51733;DHT22;39139;53.144;6.244;2023-02-28T01:22:49;3.80;99.90
51733;DHT22;39139;53.144;6.244;2023-02-28T01:25:15;3.80;99.90
51733;DHT22;39139;53.144;6.244;2023-02-28T01:27:40;3.70;99.90
51733;DHT22;39139;53.144;6.244;2023-02-28T01:30:08;3.80;99.90
51733;DHT22;39139;53.144;6.244;2023-02-28T01:32:34;3.80;99.90
51733;DHT22;39139;53.144;6.244;2023-02-28T01:34:59;3.80;99.90
51733;DHT22;39139;53.144;6.244;2023-02-28T01:37:25;3.80;99.90
51733;DHT22;39139;53.144;6.244;2023-02-28T01:39:51;3.80;99.90
51733;DHT22;39139;53.144;6.244;2023-02-28T01:42:16;3.80;99.90
51733;DHT22;39139;53.144;6.244;2023-02-28T01:47:29;4.70;99.90
51733;DHT22;39139;53.144;6.244;2023-02-28T01:49:55;3.70;99.90
51733;DHT22;39139;53.144;6.244;2023-02-28T01:52:22;3.70;99.90
51733;DHT22;39139;53.144;6.244;2023-02-28T01:54:52;3.70;99.90
51733;DHT22;39139;53.144;6.244;2023-02-28T01:57:26;3.70;99.90
51733;DHT22;39139;53.144;6.244;2023-02-28T02:00:00;3.70;99.90
51733;DHT22;39139;53.144;6.244;2023-02-28T02:02:30;3.70;99.90
51733;DHT22;39139;53.144;6.244;2023-02-28T02:05:19;3.70;99.90
51733;DHT22;39139;53.144;6.244;2023-02-28T02:07:48;3.70;99.90
51733;DHT22;39139;53.144;6.244;2023-02-28T02:10:21;3.70;99.90
51733;DHT22;39139;53.144;6.244;2023-02-28T02:17:52;3.80;99.90
51733;DHT22;39139;53.144;6.244;2023-02-28T02:20:49;3.70;99.90
51733;DHT22;39139;53.144;6.244;2023-02-28T02:23:38;3.80;99.90
51733;DHT22;39139;53.144;6.244;2023-02-28T02:26:47;3.70;99.90
51733;DHT22;39139;53.144;6.244;2023-02-28T02:34:42;3.70;99.90
51733;DHT22;39139;53.144;6.244;2023-02-28T02:42:44;3.80;99.90
51733;DHT22;39139;53.144;6.244;2023-02-28T02:45:27;3.80;99.90
51733;DHT22;39139;53.144;6.244;2023-02-28T02:48:01;3.80;99.90
51733;DHT22;39139;53.144;6.244;2023-02-28T02:53:36;3.80;99.90
51733;DHT22;39139;53.144;6.244;2023-02-28T02:56:03;3.80;99.90
51733;DHT22;39139;53.144;6.244;2023-02-28T02:58:35;3.80;99.90
51733;DHT22;39139;53.144;6.244;2023-02-28T03:01:08;3.90;99.90
51733;DHT22;39139;53.144;6.244;2023-02-28T03:03:36;3.90;99.90
51733;DHT22;39139;53.144;6.244;2023-02-28T03:06:03;3.20;99.90
51733;DHT22;39139;53.144;6.244;2023-02-28T03:08:34;3.80;99.90
51733;DHT22;39139;53.144;6.244;2023-02-28T03:11:06;3.80;99.90
51733;DHT22;39139;53.144;6.244;2023-02-28T03:13:42;3.80;99.90
51733;DHT22;39139;53.144;6.244;2023-02-28T03:19:09;3.80;99.90
51733;DHT22;39139;53.144;6.244;2023-02-28T03:21:46;3.80;99.90
51733;DHT22;39139;53.144;6.244;2023-02-28T03:24:34;3.80;99.90
51733;DHT22;39139;53.144;6.244;2023-02-28T03:27:15;3.80;99.90
51733;DHT22;39139;53.144;6.244;2023-02-28T03:30:03;3.90;99.90
51733;DHT22;39139;53.144;6.244;2023-02-28T03:32:36;3.90;99.90
51733;DHT22;39139;53.144;6.244;2023-02-28T03:35:23;3.80;99.90
51733;DHT22;39139;53.144;6.244;2023-02-28T03:37:53;3.80;99.90
51733;DHT22;39139;53.144;6.244;2023-02-28T03:40:25;3.90;99.90
51733;DHT22;39139;53.144;6.244;2023-02-28T03:42:58;3.90;99.90
51733;DHT22;39139;53.144;6.244;2023-02-28T03:45:28;3.90;99.90
51733;DHT22;39139;53.144;6.244;2023-02-28T03:48:25;3.90;99.90
51733;DHT22;39139;53.144;6.244;2023-02-28T03:50:55;3.90;99.90
51733;DHT22;39139;53.144;6.244;2023-02-28T03:53:37;3.90;99.90
51733;DHT22;39139;53.144;6.244;2023-02-28T03:56:06;3.90;99.90
51733;DHT22;39139;53.144;6.244;2023-02-28T04:01:48;3.90;99.90
51733;DHT22;39139;53.144;6.244;2023-02-28T04:04:15;3.90;99.90
51733;DHT22;39139;53.144;6.244;2023-02-28T04:06:42;3.90;99.90
51733;DHT22;39139;53.144;6.244;2023-02-28T04:09:11;3.90;99.90
51733;DHT22;39139;53.144;6.244;2023-02-28T04:11:40;3.90;99.90
51733;DHT22;39139;53.144;6.244;2023-02-28T04:14:07;4.00;99.90
51733;DHT22;39139;53.144;6.244;2023-02-28T04:16:35;3.90;99.90
51733;DHT22;39139;53.144;6.244;2023-02-28T04:19:02;3.90;99.90
51733;DHT22;39139;53.144;6.244;2023-02-28T04:21:42;3.90;99.90
51733;DHT22;39139;53.144;6.244;2023-02-28T04:24:10;3.90;99.90
51733;DHT22;39139;53.144;6.244;2023-02-28T04:26:40;3.90;99.90
51733;DHT22;39139;53.144;6.244;2023-02-28T04:29:07;3.90;99.90
51733;DHT22;39139;53.144;6.244;2023-02-28T04:31:33;3.90;99.90
51733;DHT22;39139;53.144;6.244;2023-02-28T04:33:59;3.90;99.90
51733;DHT22;39139;53.144;6.244;2023-02-28T04:36:25;3.80;99.90
51733;DHT22;39139;53.144;6.244;2023-02-28T04:38:51;3.80;99.90
51733;DHT22;39139;53.144;6.244;2023-02-28T04:41:17;3.80;99.90
51733;DHT22;39139;53.144;6.244;2023-02-28T04:43:43;3.80;99.90
51733;DHT22;39139;53.144;6.244;2023-02-28T04:46:09;3.80;99.90
51733;DHT22;39139;53.144;6.244;2023-02-28T04:48:36;3.70;99.90
51733;DHT22;39139;53.144;6.244;2023-02-28T04:51:07;3.70;99.90
51733;DHT22;39139;53.144;6.244;2023-02-28T04:53:34;3.70;99.90
51733;DHT22;39139;53.144;6.244;2023-02-28T04:56:00;3.70;99.90
51733;DHT22;39139;53.144;6.244;2023-02-28T04:58:26;3.70;99.90
51733;DHT22;39139;53.144;6.244;2023-02-28T05:00:54;3.80;99.90
51733;DHT22;39139;53.144;6.244;2023-02-28T05:03:26;3.70;99.90
51733;DHT22;39139;53.144;6.244;2023-02-28T05:05:51;3.70;99.90
51733;DHT22;39139;53.144;6.244;2023-02-28T05:08:17;3.50;99.90
51733;DHT22;39139;53.144;6.244;2023-02-28T05:10:42;3.50;99.90
51733;DHT22;39139;53.144;6.244;2023-02-28T05:13:13;3.50;99.90
51733;DHT22;39139;53.144;6.244;2023-02-28T05:15:39;3.50;99.90
51733;DHT22;39139;53.144;6.244;2023-02-28T05:18:04;3.40;99.90
51733;DHT22;39139;53.144;6.244;2023-02-28T05:20:30;3.30;99.90
51733;DHT22;39139;53.144;6.244;2023-02-28T05:22:57;3.30;99.90
51733;DHT22;39139;53.144;6.244;2023-02-28T05:25:24;3.20;99.90
51733;DHT22;39139;53.144;6.244;2023-02-28T05:27:50;3.20;99.90
51733;DHT22;39139;53.144;6.244;2023-02-28T05:30:16;3.20;99.90
51733;DHT22;39139;53.144;6.244;2023-02-28T05:32:42;3.20;99.90
51733;DHT22;39139;53.144;6.244;2023-02-28T05:35:11;3.10;99.90
51733;DHT22;39139;53.144;6.244;2023-02-28T05:37:37;3.10;99.90
51733;DHT22;39139;53.144;6.244;2023-02-28T05:40:04;3.10;99.90
51733;DHT22;39139;53.144;6.244;2023-02-28T05:42:32;3.00;99.90
51733;DHT22;39139;53.144;6.244;2023-02-28T05:44:57;3.00;99.90
51733;DHT22;39139;53.144;6.244;2023-02-28T05:47:23;2.90;99.90
51733;DHT22;39139;53.144;6.244;2023-02-28T05:49:49;3.00;99.90
51733;DHT22;39139;53.144;6.244;2023-02-28T05:52:14;2.90;99.90
51733;DHT22;39139;53.144;6.244;2023-02-28T05:54:41;3.00;99.90
51733;DHT22;39139;53.144;6.244;2023-02-28T05:57:07;2.90;99.90
51733;DHT22;39139;53.144;6.244;2023-02-28T05:59:32;2.90;99.90
51733;DHT22;39139;53.144;6.244;2023-02-28T06:01:58;2.90;99.90
51733;DHT22;39139;53.144;6.244;2023-02-28T06:04:24;2.80;99.90
51733;DHT22;39139;53.144;6.244;2023-02-28T06:06:50;2.80;99.90
51733;DHT22;39139;53.144;6.244;2023-02-28T06:09:17;2.80;99.90
51733;DHT22;39139;53.144;6.244;2023-02-28T06:11:42;2.80;99.90
51733;DHT22;39139;53.144;6.244;2023-02-28T06:14:19;2.80;99.90
51733;DHT22;39139;53.144;6.244;2023-02-28T06:16:45;3.10;99.90
51733;DHT22;39139;53.144;6.244;2023-02-28T06:19:11;2.70;99.90
51733;DHT22;39139;53.144;6.244;2023-02-28T06:21:37;2.80;99.90
51733;DHT22;39139;53.144;6.244;2023-02-28T06:24:03;2.70;99.90
51733;DHT22;39139;53.144;6.244;2023-02-28T06:26:29;2.70;99.90
51733;DHT22;39139;53.144;6.244;2023-02-28T06:28:55;2.70;99.90
51733;DHT22;39139;53.144;6.244;2023-02-28T06:31:21;2.70;99.90
51733;DHT22;39139;53.144;6.244;2023-02-28T06:33:48;2.60;99.90
51733;DHT22;39139;53.144;6.244;2023-02-28T06:36:15;2.60;99.90
51733;DHT22;39139;53.144;6.244;2023-02-28T06:38:41;2.60;99.90
51733;DHT22;39139;53.144;6.244;2023-02-28T06:41:07;2.60;99.90
51733;DHT22;39139;53.144;6.244;2023-02-28T06:43:38;2.60;99.90
51733;DHT22;39139;53.144;6.244;2023-02-28T06:46:06;2.60;99.90
51733;DHT22;39139;53.144;6.244;2023-02-28T06:48:32;2.50;99.90
51733;DHT22;39139;53.144;6.244;2023-02-28T06:51:06;2.50;99.90
51733;DHT22;39139;53.144;6.244;2023-02-28T06:53:33;2.50;99.90
51733;DHT22;39139;53.144;6.244;2023-02-28T06:55:58;2.80;99.90
51733;DHT22;39139;53.144;6.244;2023-02-28T06:58:24;2.60;99.90
51733;DHT22;39139;53.144;6.244;2023-02-28T07:00:51;2.40;99.90
51733;DHT22;39139;53.144;6.244;2023-02-28T07:03:18;2.40;99.90
51733;DHT22;39139;53.144;6.244;2023-02-28T07:05:44;2.30;99.90
51733;DHT22;39139;53.144;6.244;2023-02-28T07:08:10;2.30;99.90
51733;DHT22;39139;53.144;6.244;2023-02-28T07:10:39;2.30;99.90
51733;DHT22;39139;53.144;6.244;2023-02-28T07:13:07;2.30;99.90
51733;DHT22;39139;53.144;6.244;2023-02-28T07:15:33;2.30;99.90
51733;DHT22;39139;53.144;6.244;2023-02-28T07:17:58;2.40;99.90
51733;DHT22;39139;53.144;6.244;2023-02-28T07:20:24;2.30;99.90
51733;DHT22;39139;53.144;6.244;2023-02-28T07:22:50;2.30;99.90
51733;DHT22;39139;53.144;6.244;2023-02-28T07:25:26;2.40;99.90
51733;DHT22;39139;53.144;6.244;2023-02-28T07:27:53;2.40;99.90
51733;DHT22;39139;53.144;6.244;2023-02-28T07:30:19;2.40;99.90
51733;DHT22;39139;53.144;6.244;2023-02-28T07:32:45;2.40;99.90
51733;DHT22;39139;53.144;6.244;2023-02-28T07:35:11;2.40;99.90
51733;DHT22;39139;53.144;6.244;2023-02-28T07:37:37;1.90;99.90
51733;DHT22;39139;53.144;6.244;2023-02-28T07:40:08;2.40;99.90
51733;DHT22;39139;53.144;6.244;2023-02-28T07:42:35;2.30;99.90
51733;DHT22;39139;53.144;6.244;2023-02-28T07:45:01;2.30;99.90
51733;DHT22;39139;53.144;6.244;2023-02-28T07:47:29;2.40;99.90
51733;DHT22;39139;53.144;6.244;2023-02-28T07:49:58;2.30;99.90
51733;DHT22;39139;53.144;6.244;2023-02-28T07:52:24;2.30;99.90
51733;DHT22;39139;53.144;6.244;2023-02-28T07:54:51;2.30;99.90
51733;DHT22;39139;53.144;6.244;2023-02-28T07:57:17;2.30;99.90
51733;DHT22;39139;53.144;6.244;2023-02-28T07:59:43;2.40;99.90
51733;DHT22;39139;53.144;6.244;2023-02-28T08:02:16;2.40;99.90
51733;DHT22;39139;53.144;6.244;2023-02-28T08:04:42;2.40;99.90
51733;DHT22;39139;53.144;6.244;2023-02-28T08:07:08;2.50;99.90
51733;DHT22;39139;53.144;6.244;2023-02-28T08:09:35;2.40;99.90
51733;DHT22;39139;53.144;6.244;2023-02-28T08:12:00;2.40;99.90
51733;DHT22;39139;53.144;6.244;2023-02-28T08:14:26;2.50;99.90
51733;DHT22;39139;53.144;6.244;2023-02-28T08:16:52;2.50;99.90
51733;DHT22;39139;53.144;6.244;2023-02-28T08:19:17;2.50;99.90
51733;DHT22;39139;53.144;6.244;2023-02-28T08:21:43;2.60;99.90
51733;DHT22;39139;53.144;6.244;2023-02-28T08:24:08;2.60;99.90
51733;DHT22;39139;53.144;6.244;2023-02-28T08:26:34;2.80;99.90
51733;DHT22;39139;53.144;6.244;2023-02-28T08:29:00;2.70;99.90
51733;DHT22;39139;53.144;6.244;2023-02-28T08:31:25;2.70;99.90
51733;DHT22;39139;53.144;6.244;2023-02-28T08:33:51;2.80;99.90
51733;DHT22;39139;53.144;6.244;2023-02-28T08:36:19;3.40;99.90
51733;DHT22;39139;53.144;6.244;2023-02-28T08:38:44;2.90;99.90
51733;DHT22;39139;53.144;6.244;2023-02-28T08:41:12;2.90;99.90
51733;DHT22;39139;53.144;6.244;2023-02-28T08:43:39;3.00;99.90
51733;DHT22;39139;53.144;6.244;2023-02-28T08:46:05;3.00;99.90
51733;DHT22;39139;53.144;6.244;2023-02-28T08:48:33;3.10;99.90
51733;DHT22;39139;53.144;6.244;2023-02-28T08:51:04;3.10;99.90
51733;DHT22;39139;53.144;6.244;2023-02-28T08:53:30;3.10;99.90
51733;DHT22;39139;53.144;6.244;2023-02-28T08:56:00;3.20;99.90
51733;DHT22;39139;53.144;6.244;2023-02-28T08:58:26;3.30;99.90
51733;DHT22;39139;53.144;6.244;2023-02-28T09:00:53;3.90;99.90
51733;DHT22;39139;53.144;6.244;2023-02-28T09:03:19;3.30;99.90
51733;DHT22;39139;53.144;6.244;2023-02-28T09:05:58;3.40;99.90
51733;DHT22;39139;53.144;6.244;2023-02-28T09:08:25;3.50;99.90
51733;DHT22;39139;53.144;6.244;2023-02-28T09:10:52;3.50;99.90
51733;DHT22;39139;53.144;6.244;2023-02-28T09:13:18;3.50;99.90
51733;DHT22;39139;53.144;6.244;2023-02-28T09:15:44;3.50;99.90
51733;DHT22;39139;53.144;6.244;2023-02-28T09:18:10;3.50;99.90
51733;DHT22;39139;53.144;6.244;2023-02-28T09:20:40;3.50;99.90
51733;DHT22;39139;53.144;6.244;2023-02-28T09:23:08;3.50;99.90
51733;DHT22;39139;53.144;6.244;2023-02-28T09:25:34;3.60;99.90
51733;DHT22;39139;53.144;6.244;2023-02-28T09:28:00;3.70;99.90
51733;DHT22;39139;53.144;6.244;2023-02-28T09:30:26;3.70;99.90
51733;DHT22;39139;53.144;6.244;2023-02-28T09:32:51;3.70;99.90
51733;DHT22;39139;53.144;6.244;2023-02-28T09:35:22;3.90;99.90
51733;DHT22;39139;53.144;6.244;2023-02-28T09:37:50;4.00;99.90
51733;DHT22;39139;53.144;6.244;2023-02-28T09:40:18;4.20;99.90
51733;DHT22;39139;53.144;6.244;2023-02-28T09:42:50;4.40;99.90
51733;DHT22;39139;53.144;6.244;2023-02-28T09:45:33;4.40;99.90
51733;DHT22;39139;53.144;6.244;2023-02-28T09:48:14;4.50;99.90
51733;DHT22;39139;53.144;6.244;2023-02-28T09:50:55;4.70;99.90
51733;DHT22;39139;53.144;6.244;2023-02-28T09:53:31;4.70;99.90
51733;DHT22;39139;53.144;6.244;2023-02-28T10:03:58;6.30;99.90
51733;DHT22;39139;53.144;6.244;2023-02-28T10:06:32;5.90;99.90
51733;DHT22;39139;53.144;6.244;2023-02-28T10:09:06;5.80;99.90
51733;DHT22;39139;53.144;6.244;2023-02-28T10:11:36;5.90;99.90
51733;DHT22;39139;53.144;6.244;2023-02-28T10:14:14;6.10;99.90
51733;DHT22;39139;53.144;6.244;2023-02-28T10:21:56;7.10;99.90
51733;DHT22;39139;53.144;6.244;2023-02-28T10:24:42;7.40;99.90
51733;DHT22;39139;53.144;6.244;2023-02-28T10:27:15;7.80;99.90
51733;DHT22;39139;53.144;6.244;2023-02-28T10:29:45;8.30;99.90
51733;DHT22;39139;53.144;6.244;2023-02-28T10:32:15;8.40;99.90
51733;DHT22;39139;53.144;6.244;2023-02-28T10:34:42;8.70;99.90
51733;DHT22;39139;53.144;6.244;2023-02-28T10:37:07;8.90;99.90
51733;DHT22;39139;53.144;6.244;2023-02-28T10:42:05;9.60;99.90
51733;DHT22;39139;53.144;6.244;2023-02-28T10:44:42;9.70;99.90
51733;DHT22;39139;53.144;6.244;2023-02-28T10:47:15;9.80;99.90
51733;DHT22;39139;53.144;6.244;2023-02-28T10:49:48;10.00;99.90
51733;DHT22;39139;53.144;6.244;2023-02-28T10:52:38;10.30;99.90
51733;DHT22;39139;53.144;6.244;2023-02-28T10:55:22;10.40;99.90
51733;DHT22;39139;53.144;6.244;2023-02-28T10:57:51;10.20;99.90
51733;DHT22;39139;53.144;6.244;2023-02-28T11:00:23;10.40;99.90
51733;DHT22;39139;53.144;6.244;2023-02-28T11:02:50;10.70;99.90
51733;DHT22;39139;53.144;6.244;2023-02-28T11:08:05;10.90;99.90
51733;DHT22;39139;53.144;6.244;2023-02-28T11:10:32;11.20;99.90
51733;DHT22;39139;53.144;6.244;2023-02-28T11:13:00;11.30;99.90
51733;DHT22;39139;53.144;6.244;2023-02-28T11:15:30;12.00;99.90
51733;DHT22;39139;53.144;6.244;2023-02-28T11:18:02;12.10;99.90
51733;DHT22;39139;53.144;6.244;2023-02-28T11:20:33;12.00;99.90
51733;DHT22;39139;53.144;6.244;2023-02-28T11:23:01;12.10;99.90
51733;DHT22;39139;53.144;6.244;2023-02-28T11:25:37;12.40;99.90
51733;DHT22;39139;53.144;6.244;2023-02-28T11:28:06;12.80;99.90
51733;DHT22;39139;53.144;6.244;2023-02-28T11:31:09;12.90;99.90
51733;DHT22;39139;53.144;6.244;2023-02-28T11:33:46;12.60;99.90
51733;DHT22;39139;53.144;6.244;2023-02-28T11:36:23;12.00;99.90
51733;DHT22;39139;53.144;6.244;2023-02-28T11:38:54;11.50;99.90
51733;DHT22;39139;53.144;6.244;2023-02-28T11:47:11;11.90;99.90
51733;DHT22;39139;53.144;6.244;2023-02-28T11:55:26;12.30;99.90
51733;DHT22;39139;53.144;6.244;2023-02-28T12:11:52;12.60;99.90
51733;DHT22;39139;53.144;6.244;2023-02-28T12:17:34;13.10;99.90
51733;DHT22;39139;53.144;6.244;2023-02-28T12:28:02;13.80;99.90
51733;DHT22;39139;53.144;6.244;2023-02-28T12:30:29;13.50;99.90
51733;DHT22;39139;53.144;6.244;2023-02-28T12:33:02;13.60;99.90
51733;DHT22;39139;53.144;6.244;2023-02-28T12:35:48;13.40;99.90
51733;DHT22;39139;53.144;6.244;2023-02-28T12:38:25;13.40;99.90
51733;DHT22;39139;53.144;6.244;2023-02-28T12:41:00;13.60;99.90
51733;DHT22;39139;53.144;6.244;2023-02-28T12:43:34;13.40;99.90
51733;DHT22;39139;53.144;6.244;2023-02-28T12:46:19;14.10;99.90
51733;DHT22;39139;53.144;6.244;2023-02-28T12:48:55;14.50;99.90
51733;DHT22;39139;53.144;6.244;2023-02-28T12:51:22;15.00;99.50
51733;DHT22;39139;53.144;6.244;2023-02-28T12:59:45;14.30;99.90
51733;DHT22;39139;53.144;6.244;2023-02-28T13:10:47;12.20;99.90
51733;DHT22;39139;53.144;6.244;2023-02-28T13:13:21;11.90;99.90
51733;DHT22;39139;53.144;6.244;2023-02-28T13:21:01;12.50;99.90
51733;DHT22;39139;53.144;6.244;2023-02-28T13:26:17;13.40;99.90
51733;DHT22;39139;53.144;6.244;2023-02-28T13:31:19;13.50;99.50
51733;DHT22;39139;53.144;6.244;2023-02-28T13:36:32;13.70;99.10
51733;DHT22;39139;53.144;6.244;2023-02-28T13:41:48;13.70;99.60
51733;DHT22;39139;53.144;6.244;2023-02-28T13:44:19;13.40;99.90
51733;DHT22;39139;53.144;6.244;2023-02-28T14:00:23;11.60;99.90
51733;DHT22;39139;53.144;6.244;2023-02-28T14:05:45;11.10;99.90
51733;DHT22;39139;53.144;6.244;2023-02-28T14:08:18;10.80;99.90
51733;DHT22;39139;53.144;6.244;2023-02-28T14:10:52;10.70;99.90
51733;DHT22;39139;53.144;6.244;2023-02-28T14:13:38;10.50;99.90
51733;DHT22;39139;53.144;6.244;2023-02-28T14:16:10;10.30;99.90
51733;DHT22;39139;53.144;6.244;2023-02-28T14:18:42;10.10;99.90
51733;DHT22;39139;53.144;6.244;2023-02-28T14:21:26;9.80;99.90
51733;DHT22;39139;53.144;6.244;2023-02-28T14:24:19;9.60;99.90
51733;DHT22;39139;53.144;6.244;2023-02-28T14:27:11;9.40;99.90
51733;DHT22;39139;53.144;6.244;2023-02-28T14:32:27;9.30;99.90
51733;DHT22;39139;53.144;6.244;2023-02-28T14:37:39;9.80;99.90
51733;DHT22;39139;53.144;6.244;2023-02-28T14:40:16;9.80;99.90
51733;DHT22;39139;53.144;6.244;2023-02-28T14:45:21;10.00;99.90
51733;DHT22;39139;53.144;6.244;2023-02-28T14:47:51;10.00;99.90
51733;DHT22;39139;53.144;6.244;2023-02-28T14:50:18;10.10;99.90
51733;DHT22;39139;53.144;6.244;2023-02-28T14:52:44;10.00;99.90
51733;DHT22;39139;53.144;6.244;2023-02-28T14:55:14;9.80;99.90
51733;DHT22;39139;53.144;6.244;2023-02-28T14:57:51;9.90;99.90
51733;DHT22;39139;53.144;6.244;2023-02-28T15:00:32;10.00;99.90
51733;DHT22;39139;53.144;6.244;2023-02-28T15:02:59;10.10;99.90
51733;DHT22;39139;53.144;6.244;2023-02-28T15:05:33;10.40;99.90
51733;DHT22;39139;53.144;6.244;2023-02-28T15:08:10;10.20;99.90
51733;DHT22;39139;53.144;6.244;2023-02-28T15:10:37;10.20;99.90
51733;DHT22;39139;53.144;6.244;2023-02-28T15:13:07;10.20;99.90
51733;DHT22;39139;53.144;6.244;2023-02-28T15:15:55;10.10;99.90
51733;DHT22;39139;53.144;6.244;2023-02-28T15:18:49;10.10;99.90
51733;DHT22;39139;53.144;6.244;2023-02-28T15:21:25;10.00;99.90
51733;DHT22;39139;53.144;6.244;2023-02-28T15:26:28;9.70;99.90
51733;DHT22;39139;53.144;6.244;2023-02-28T15:29:06;9.50;99.90
51733;DHT22;39139;53.144;6.244;2023-02-28T15:31:41;9.40;99.90
51733;DHT22;39139;53.144;6.244;2023-02-28T15:34:22;9.30;99.90
51733;DHT22;39139;53.144;6.244;2023-02-28T15:36:48;9.40;99.90
51733;DHT22;39139;53.144;6.244;2023-02-28T15:39:26;9.00;99.90
51733;DHT22;39139;53.144;6.244;2023-02-28T15:42:17;8.90;99.90
51733;DHT22;39139;53.144;6.244;2023-02-28T15:44:43;8.80;99.90
51733;DHT22;39139;53.144;6.244;2023-02-28T15:47:23;8.70;99.90
51733;DHT22;39139;53.144;6.244;2023-02-28T15:52:33;8.50;99.90
51733;DHT22;39139;53.144;6.244;2023-02-28T15:55:12;8.50;99.90
51733;DHT22;39139;53.144;6.244;2023-02-28T15:57:42;8.40;99.90
51733;DHT22;39139;53.144;6.244;2023-02-28T16:00:14;8.20;99.90
51733;DHT22;39139;53.144;6.244;2023-02-28T16:02:41;8.20;99.90
51733;DHT22;39139;53.144;6.244;2023-02-28T16:07:39;8.00;99.90
51733;DHT22;39139;53.144;6.244;2023-02-28T16:10:07;8.00;99.90
51733;DHT22;39139;53.144;6.244;2023-02-28T16:12:35;8.00;99.90
51733;DHT22;39139;53.144;6.244;2023-02-28T16:15:07;8.00;99.90
51733;DHT22;39139;53.144;6.244;2023-02-28T16:17:35;7.90;99.90
51733;DHT22;39139;53.144;6.244;2023-02-28T16:20:13;7.80;99.90
51733;DHT22;39139;53.144;6.244;2023-02-28T16:22:40;7.80;99.90
51733;DHT22;39139;53.144;6.244;2023-02-28T16:25:14;7.90;99.90
51733;DHT22;39139;53.144;6.244;2023-02-28T16:27:42;7.60;99.90
51733;DHT22;39139;53.144;6.244;2023-02-28T16:30:19;7.50;99.90
51733;DHT22;39139;53.144;6.244;2023-02-28T16:32:46;7.40;99.90
51733;DHT22;39139;53.144;6.244;2023-02-28T16:35:12;7.30;99.90
51733;DHT22;39139;53.144;6.244;2023-02-28T16:37:39;7.30;99.90
51733;DHT22;39139;53.144;6.244;2023-02-28T16:40:06;7.20;99.90
51733;DHT22;39139;53.144;6.244;2023-02-28T16:42:33;7.10;99.90
51733;DHT22;39139;53.144;6.244;2023-02-28T16:44:59;7.00;99.90
51733;DHT22;39139;53.144;6.244;2023-02-28T16:47:25;7.00;99.90
51733;DHT22;39139;53.144;6.244;2023-02-28T16:49:52;6.80;99.90
51733;DHT22;39139;53.144;6.244;2023-02-28T16:52:18;6.80;99.90
51733;DHT22;39139;53.144;6.244;2023-02-28T16:54:43;6.70;99.90
51733;DHT22;39139;53.144;6.244;2023-02-28T16:57:21;6.70;99.90
51733;DHT22;39139;53.144;6.244;2023-02-28T16:59:49;6.60;99.90
51733;DHT22;39139;53.144;6.244;2023-02-28T17:02:17;6.50;99.90
51733;DHT22;39139;53.144;6.244;2023-02-28T17:04:44;6.40;99.90
51733;DHT22;39139;53.144;6.244;2023-02-28T17:07:13;6.30;99.90
51733;DHT22;39139;53.144;6.244;2023-02-28T17:09:43;6.30;99.90
51733;DHT22;39139;53.144;6.244;2023-02-28T17:12:09;6.10;99.90
51733;DHT22;39139;53.144;6.244;2023-02-28T17:14:36;6.00;99.90
51733;DHT22;39139;53.144;6.244;2023-02-28T17:17:04;6.00;99.90
51733;DHT22;39139;53.144;6.244;2023-02-28T17:19:30;5.90;99.90
51733;DHT22;39139;53.144;6.244;2023-02-28T17:21:56;5.70;99.90
51733;DHT22;39139;53.144;6.244;2023-02-28T17:24:22;5.60;99.90
51733;DHT22;39139;53.144;6.244;2023-02-28T17:26:47;5.50;99.90
51733;DHT22;39139;53.144;6.244;2023-02-28T17:29:19;5.30;99.90
51733;DHT22;39139;53.144;6.244;2023-02-28T17:31:45;5.50;99.90
51733;DHT22;39139;53.144;6.244;2023-02-28T17:34:11;5.10;99.90
51733;DHT22;39139;53.144;6.244;2023-02-28T17:36:44;5.00;99.90
51733;DHT22;39139;53.144;6.244;2023-02-28T17:39:11;5.00;99.90
51733;DHT22;39139;53.144;6.244;2023-02-28T17:41:40;4.90;99.90
51733;DHT22;39139;53.144;6.244;2023-02-28T17:44:06;4.70;99.90
51733;DHT22;39139;53.144;6.244;2023-02-28T17:46:32;4.60;99.90
51733;DHT22;39139;53.144;6.244;2023-02-28T17:48:57;4.40;99.90
51733;DHT22;39139;53.144;6.244;2023-02-28T17:51:24;4.20;99.90
51733;DHT22;39139;53.144;6.244;2023-02-28T17:53:49;4.20;99.90
51733;DHT22;39139;53.144;6.244;2023-02-28T17:56:23;4.10;99.90
51733;DHT22;39139;53.144;6.244;2023-02-28T17:58:51;4.10;99.90
51733;DHT22;39139;53.144;6.244;2023-02-28T18:01:17;4.00;99.90
51733;DHT22;39139;53.144;6.244;2023-02-28T18:03:43;4.00;99.90
51733;DHT22;39139;53.144;6.244;2023-02-28T18:08:48;3.80;99.90
51733;DHT22;39139;53.144;6.244;2023-02-28T18:11:14;3.80;99.90
51733;DHT22;39139;53.144;6.244;2023-02-28T18:13:47;3.70;99.90
51733;DHT22;39139;53.144;6.244;2023-02-28T18:16:13;3.70;99.90
51733;DHT22;39139;53.144;6.244;2023-02-28T18:18:39;2.50;99.90
51733;DHT22;39139;53.144;6.244;2023-02-28T18:21:06;3.60;99.90
51733;DHT22;39139;53.144;6.244;2023-02-28T18:23:34;3.80;99.90
51733;DHT22;39139;53.144;6.244;2023-02-28T18:25:59;3.50;99.90